createdAt,value
2019-05-23T02:22:46.462Z,1013.23
2019-05-23T02:23:46.457Z,1013.25
2019-05-23T02:24:46.433Z,1013.27
2019-05-23T02:25:46.424Z,1013.24
2019-05-23T02:26:46.414Z,1013.28
2019-05-23T02:27:46.411Z,1013.24
2019-05-23T02:28:46.390Z,1013.23
2019-05-23T02:29:46.419Z,1013.27
2019-05-23T02:30:46.371Z,1013.21
2019-05-23T02:31:46.365Z,1013.23
2019-05-23T02:32:46.348Z,1013.19
2019-05-23T02:33:46.340Z,1013.16
2019-05-23T02:34:46.326Z,1013.21
2019-05-23T02:35:46.312Z,1013.17
2019-05-23T02:36:46.322Z,1013.18
2019-05-23T02:37:46.291Z,1013.20
2019-05-23T02:38:46.274Z,1013.22
2019-05-23T02:39:46.267Z,1013.19
2019-05-23T02:40:46.257Z,1013.20
2019-05-23T02:41:46.254Z,1013.17
2019-05-23T02:42:46.237Z,1013.18
2019-05-23T02:43:46.224Z,1013.20
2019-05-23T02:44:46.213Z,1013.21
2019-05-23T02:45:46.198Z,1013.17
2019-05-23T02:46:46.183Z,1013.18
2019-05-23T02:47:46.224Z,1013.17
2019-05-23T02:48:46.164Z,1013.14
2019-05-23T02:49:46.152Z,1013.17
2019-05-23T02:50:46.135Z,1013.12
2019-05-23T02:51:46.134Z,1013.19
2019-05-23T02:52:46.121Z,1013.11
2019-05-23T02:53:46.110Z,1013.09
2019-05-23T02:54:46.110Z,1013.20
2019-05-23T02:55:46.104Z,1013.21
2019-05-23T02:56:46.071Z,1013.21
2019-05-23T02:57:46.060Z,1013.23
2019-05-23T02:58:46.046Z,1013.24
2019-05-23T02:59:46.034Z,1013.16
2019-05-23T03:00:54.446Z,1013.23
2019-05-23T03:02:10.490Z,1013.28
2019-05-23T03:03:10.483Z,1013.19
2019-05-23T03:04:10.473Z,1013.29
2019-05-23T03:05:10.459Z,1013.20
2019-05-23T03:06:10.448Z,1013.26
2019-05-23T03:07:10.437Z,1013.21
2019-05-23T03:08:10.426Z,1013.27
2019-05-23T03:09:10.422Z,1013.23
2019-05-23T03:10:10.431Z,1013.21
2019-05-23T03:11:10.422Z,1013.24
2019-05-23T03:12:10.432Z,1013.21
2019-05-23T03:13:10.377Z,1013.19
2019-05-23T03:14:10.378Z,1013.24
2019-05-23T03:15:10.376Z,1013.21
2019-05-23T03:16:10.377Z,1013.18
2019-05-23T03:17:10.328Z,1013.23
2019-05-23T03:18:10.316Z,1013.24
2019-05-23T03:19:10.305Z,1013.26
2019-05-23T03:20:10.290Z,1013.27
2019-05-23T03:21:10.278Z,1013.25
2019-05-23T03:22:10.282Z,1013.26
2019-05-23T03:23:10.257Z,1013.23
2019-05-23T03:24:10.247Z,1013.22
2019-05-23T03:25:10.234Z,1013.25
2019-05-23T03:26:10.227Z,1013.28
2019-05-23T03:27:10.213Z,1013.28
2019-05-23T03:28:10.204Z,1013.30
2019-05-23T03:29:10.192Z,1013.34
2019-05-23T03:30:10.183Z,1013.36
2019-05-23T03:31:28.341Z,1013.30
2019-05-23T03:32:11.176Z,1013.30
2019-05-23T03:33:10.153Z,1013.32
2019-05-23T03:34:10.138Z,1013.26
2019-05-23T03:35:10.143Z,1013.36
2019-05-23T03:36:10.133Z,1013.35
2019-05-23T03:37:10.100Z,1013.29
2019-05-23T03:38:10.096Z,1013.33
2019-05-23T03:39:10.080Z,1013.34
2019-05-23T03:40:10.071Z,1013.37
2019-05-23T03:41:10.075Z,1013.36
2019-05-23T03:42:10.057Z,1013.37
2019-05-23T03:43:10.042Z,1013.36
2019-05-23T03:44:10.028Z,1013.39
2019-05-23T03:45:10.011Z,1013.41
2019-05-23T03:46:09.998Z,1013.34
2019-05-23T03:47:09.987Z,1013.36
2019-05-23T03:48:09.981Z,1013.37
2019-05-23T03:49:09.973Z,1013.33
2019-05-23T03:50:09.952Z,1013.39
2019-05-23T03:51:09.963Z,1013.37
2019-05-23T03:52:09.942Z,1013.35
2019-05-23T03:53:09.926Z,1013.33
2019-05-23T03:54:09.909Z,1013.33
2019-05-23T03:55:09.897Z,1013.37
2019-05-23T03:56:09.885Z,1013.35
2019-05-23T03:57:09.880Z,1013.39
2019-05-23T03:58:09.868Z,1013.34
2019-05-23T03:59:09.883Z,1013.42
2019-05-23T04:00:09.842Z,1013.38
2019-05-23T04:01:09.832Z,1013.45
2019-05-23T04:02:09.821Z,1013.41
2019-05-23T04:03:09.808Z,1013.41
2019-05-23T04:04:09.806Z,1013.47
2019-05-23T04:05:09.789Z,1013.44
2019-05-23T04:06:09.771Z,1013.43
2019-05-23T04:07:09.774Z,1013.55
2019-05-23T04:08:09.761Z,1013.49
2019-05-23T04:09:09.747Z,1013.50
2019-05-23T04:10:09.725Z,1013.51
2019-05-23T04:11:09.719Z,1013.55
2019-05-23T04:12:09.715Z,1013.51
2019-05-23T04:13:09.689Z,1013.53
2019-05-23T04:14:09.679Z,1013.57
2019-05-23T04:15:09.668Z,1013.54
2019-05-23T04:16:09.660Z,1013.61
2019-05-23T04:17:09.646Z,1013.60
2019-05-23T04:18:09.643Z,1013.62
2019-05-23T04:19:09.624Z,1013.62
2019-05-23T04:20:09.609Z,1013.62
2019-05-23T04:21:09.598Z,1013.61
2019-05-23T04:22:09.587Z,1013.61
2019-05-23T04:23:09.577Z,1013.61
2019-05-23T04:24:09.572Z,1013.60
2019-05-23T04:25:09.556Z,1013.58
2019-05-23T04:26:09.540Z,1013.65
2019-05-23T04:27:09.533Z,1013.63
2019-05-23T04:28:09.518Z,1013.60
2019-05-23T04:29:09.511Z,1013.58
2019-05-23T04:30:09.497Z,1013.64
2019-05-23T04:31:12.971Z,1013.62
2019-05-23T04:32:09.472Z,1013.62
2019-05-23T04:33:09.469Z,1013.68
2019-05-23T04:34:09.450Z,1013.65
2019-05-23T04:35:09.442Z,1013.68
2019-05-23T04:36:09.425Z,1013.72
2019-05-23T04:37:09.412Z,1013.71
2019-05-23T04:38:09.404Z,1013.68
2019-05-23T04:39:09.389Z,1013.71
2019-05-23T04:40:09.377Z,1013.68
2019-05-23T04:41:09.370Z,1013.76
2019-05-23T04:42:09.358Z,1013.78
2019-05-23T04:43:09.345Z,1013.73
2019-05-23T04:44:09.338Z,1013.75
2019-05-23T04:45:09.321Z,1013.80
2019-05-23T04:46:09.313Z,1013.80
2019-05-23T04:47:09.302Z,1013.82
2019-05-23T04:48:09.289Z,1013.77
2019-05-23T04:49:09.281Z,1013.85
2019-05-23T04:50:09.269Z,1013.80
2019-05-23T04:51:09.254Z,1013.92
2019-05-23T04:52:09.245Z,1013.88
2019-05-23T04:53:09.234Z,1013.87
2019-05-23T04:54:09.220Z,1013.89
2019-05-23T04:55:09.246Z,1013.87
2019-05-23T04:56:09.200Z,1013.86
2019-05-23T04:57:09.192Z,1013.80
2019-05-23T04:58:09.176Z,1013.88
2019-05-23T04:59:09.165Z,1013.84
2019-05-23T05:00:09.151Z,1013.87
2019-05-23T05:01:09.149Z,1013.86
2019-05-23T05:02:24.834Z,1013.82
2019-05-23T05:03:33.605Z,1013.79
2019-05-23T05:04:33.594Z,1013.84
2019-05-23T05:05:33.576Z,1013.78
2019-05-23T05:06:33.583Z,1013.83
2019-05-23T05:07:33.556Z,1013.81
2019-05-23T05:08:33.550Z,1013.87
2019-05-23T05:09:33.533Z,1013.83
2019-05-23T05:10:33.517Z,1013.87
2019-05-23T05:11:33.513Z,1013.92
2019-05-23T05:12:33.495Z,1013.97
2019-05-23T05:13:33.486Z,1013.87
2019-05-23T05:14:33.571Z,1013.97
2019-05-23T05:15:33.467Z,1013.90
2019-05-23T05:16:33.450Z,1013.89
2019-05-23T05:17:33.441Z,1013.88
2019-05-23T05:18:33.427Z,1013.90
2019-05-23T05:19:33.424Z,1013.91
2019-05-23T05:20:33.408Z,1013.94
2019-05-23T05:21:33.392Z,1013.90
2019-05-23T05:22:33.383Z,1013.87
2019-05-23T05:23:33.377Z,1013.85
2019-05-23T05:24:33.361Z,1013.90
2019-05-23T05:25:33.348Z,1013.89
2019-05-23T05:26:33.338Z,1013.94
2019-05-23T05:27:33.336Z,1013.98
2019-05-23T05:28:33.329Z,1013.96
2019-05-23T05:29:33.309Z,1014.01
2019-05-23T05:30:33.343Z,1014.02
2019-05-23T05:31:33.284Z,1014.01
2019-05-23T05:32:44.250Z,1014.00
2019-05-23T05:33:34.293Z,1013.98
2019-05-23T05:34:33.257Z,1014.01
2019-05-23T05:35:33.273Z,1014.07
2019-05-23T05:36:33.231Z,1014.04
2019-05-23T05:37:33.220Z,1014.02
2019-05-23T05:38:33.207Z,1014.01
2019-05-23T05:39:33.196Z,1013.98
2019-05-23T05:40:33.188Z,1014.05
2019-05-23T05:41:33.187Z,1014.01
2019-05-23T05:42:33.163Z,1014.04
2019-05-23T05:43:33.193Z,1014.02
2019-05-23T05:44:33.141Z,1014.02
2019-05-23T05:45:33.394Z,1013.99
2019-05-23T05:46:33.118Z,1013.99
2019-05-23T05:47:33.107Z,1014.00
2019-05-23T05:48:33.092Z,1013.99
2019-05-23T05:49:33.083Z,1014.10
2019-05-23T05:50:33.072Z,1014.04
2019-05-23T05:51:33.063Z,1014.00
2019-05-23T05:52:33.048Z,1014.09
2019-05-23T05:53:33.037Z,1014.12
2019-05-23T05:54:33.029Z,1014.10
2019-05-23T05:55:33.037Z,1014.10
2019-05-23T05:56:33.005Z,1014.09
2019-05-23T05:57:32.998Z,1014.15
2019-05-23T05:58:32.984Z,1014.15
2019-05-23T05:59:32.976Z,1014.14
2019-05-23T06:00:32.971Z,1014.15
2019-05-23T06:01:34.563Z,1014.16
2019-05-23T06:02:32.956Z,1014.13
2019-05-23T06:03:32.930Z,1014.09
2019-05-23T06:04:32.922Z,1014.10
2019-05-23T06:05:32.910Z,1014.14
2019-05-23T06:06:32.895Z,1014.16
2019-05-23T06:07:32.888Z,1014.06
2019-05-23T06:08:32.879Z,1014.11
2019-05-23T06:09:32.869Z,1014.11
2019-05-23T06:10:32.858Z,1014.15
2019-05-23T06:11:32.842Z,1014.20
2019-05-23T06:12:32.832Z,1014.14
2019-05-23T06:13:32.857Z,1014.19
2019-05-23T06:14:32.807Z,1014.20
2019-05-23T06:15:32.795Z,1014.15
2019-05-23T06:16:32.790Z,1014.20
2019-05-23T06:17:32.827Z,1014.24
2019-05-23T06:18:32.765Z,1014.21
2019-05-23T06:19:32.755Z,1014.26
2019-05-23T06:20:32.744Z,1014.27
2019-05-23T06:21:32.736Z,1014.28
2019-05-23T06:22:32.718Z,1014.24
2019-05-23T06:23:32.707Z,1014.25
2019-05-23T06:24:45.110Z,1014.23
2019-05-23T06:25:57.169Z,1014.30
2019-05-23T06:26:57.156Z,1014.33
2019-05-23T06:27:57.146Z,1014.29
2019-05-23T06:28:57.136Z,1014.31
2019-05-23T06:29:57.124Z,1014.32
2019-05-23T06:30:57.112Z,1014.30
2019-05-23T06:31:57.103Z,1014.29
2019-05-23T06:32:57.099Z,1014.34
2019-05-23T06:33:57.082Z,1014.30
2019-05-23T06:34:57.068Z,1014.34
2019-05-23T06:35:57.057Z,1014.35
2019-05-23T06:36:57.041Z,1014.33
2019-05-23T06:37:57.344Z,1014.38
2019-05-23T06:38:57.028Z,1014.36
2019-05-23T06:39:57.024Z,1014.34
2019-05-23T06:40:56.999Z,1014.31
2019-05-23T06:41:56.987Z,1014.35
2019-05-23T06:42:56.985Z,1014.36
2019-05-23T06:43:56.969Z,1014.37
2019-05-23T06:44:56.979Z,1014.40
2019-05-23T06:45:56.946Z,1014.35
2019-05-23T06:46:56.934Z,1014.38
2019-05-23T06:47:56.926Z,1014.40
2019-05-23T06:48:56.927Z,1014.38
2019-05-23T06:49:56.908Z,1014.42
2019-05-23T06:50:56.895Z,1014.45
2019-05-23T06:51:56.889Z,1014.47
2019-05-23T06:52:56.874Z,1014.45
2019-05-23T06:53:56.858Z,1014.39
2019-05-23T06:54:59.681Z,1014.44
2019-05-23T06:55:56.910Z,1014.48
2019-05-23T06:56:56.838Z,1014.54
2019-05-23T06:57:56.811Z,1014.48
2019-05-23T06:58:56.805Z,1014.47
2019-05-23T06:59:56.795Z,1014.48
2019-05-23T07:00:56.779Z,1014.51
2019-05-23T07:01:56.780Z,1014.52
2019-05-23T07:02:56.761Z,1014.49
2019-05-23T07:03:56.995Z,1014.49
2019-05-23T07:04:56.733Z,1014.47
2019-05-23T07:05:56.722Z,1014.54
2019-05-23T07:06:56.715Z,1014.55
2019-05-23T07:07:56.719Z,1014.52
2019-05-23T07:08:56.690Z,1014.50
2019-05-23T07:09:56.765Z,1014.57
2019-05-23T07:10:56.665Z,1014.57
2019-05-23T07:11:56.661Z,1014.54
2019-05-23T07:12:56.648Z,1014.58
2019-05-23T07:13:56.629Z,1014.60
2019-05-23T07:14:56.624Z,1014.60
2019-05-23T07:15:56.611Z,1014.57
2019-05-23T07:16:56.605Z,1014.58
2019-05-23T07:17:56.593Z,1014.55
2019-05-23T07:18:56.578Z,1014.55
2019-05-23T07:19:56.565Z,1014.53
2019-05-23T07:20:56.558Z,1014.59
2019-05-23T07:21:56.541Z,1014.61
2019-05-23T07:22:56.537Z,1014.54
2019-05-23T07:23:56.521Z,1014.63
2019-05-23T07:24:58.532Z,1014.56
2019-05-23T07:25:56.504Z,1014.62
2019-05-23T07:26:56.490Z,1014.60
2019-05-23T07:27:56.492Z,1014.55
2019-05-23T07:28:56.466Z,1014.58
2019-05-23T07:29:56.561Z,1014.58
2019-05-23T07:30:56.443Z,1014.63
2019-05-23T07:31:56.436Z,1014.64
2019-05-23T07:32:56.426Z,1014.62
2019-05-23T07:34:01.841Z,1014.60
2019-05-23T07:35:20.886Z,1014.60
2019-05-23T07:36:20.976Z,1014.62
2019-05-23T07:37:20.853Z,1014.69
2019-05-23T07:38:20.847Z,1014.69
2019-05-23T07:39:20.840Z,1014.66
2019-05-23T07:40:20.823Z,1014.69
2019-05-23T07:41:20.818Z,1014.71
2019-05-23T07:42:20.798Z,1014.73
2019-05-23T07:43:20.793Z,1014.68
2019-05-23T07:44:20.780Z,1014.69
2019-05-23T07:45:20.772Z,1014.66
2019-05-23T07:46:20.771Z,1014.68
2019-05-23T07:47:20.750Z,1014.65
2019-05-23T07:48:20.745Z,1014.61
2019-05-23T07:49:20.823Z,1014.61
2019-05-23T07:50:20.719Z,1014.69
2019-05-23T07:51:20.710Z,1014.69
2019-05-23T07:52:20.689Z,1014.71
2019-05-23T07:53:20.685Z,1014.68
2019-05-23T07:54:20.665Z,1014.74
2019-05-23T07:55:20.661Z,1014.73
2019-05-23T07:56:20.661Z,1014.73
2019-05-23T07:57:20.656Z,1014.74
2019-05-23T07:58:20.628Z,1014.71
2019-05-23T07:59:20.614Z,1014.64
2019-05-23T08:00:20.642Z,1014.59
2019-05-23T08:01:20.610Z,1014.61
2019-05-23T08:02:25.321Z,1014.71
2019-05-23T08:03:20.597Z,1014.66
2019-05-23T08:04:22.513Z,1014.67
2019-05-23T08:05:20.549Z,1014.65
2019-05-23T08:06:20.560Z,1014.71
2019-05-23T08:07:20.531Z,1014.67
2019-05-23T08:08:20.517Z,1014.65
2019-05-23T08:09:20.509Z,1014.72
2019-05-23T08:10:33.248Z,1014.67
2019-05-23T08:11:21.510Z,1014.69
2019-05-23T08:12:20.485Z,1014.70
2019-05-23T08:13:20.464Z,1014.70
2019-05-23T08:14:20.463Z,1014.76
2019-05-23T08:15:20.458Z,1014.75
2019-05-23T08:16:20.441Z,1014.71
2019-05-23T08:17:20.519Z,1014.72
2019-05-23T08:18:20.432Z,1014.77
2019-05-23T08:19:20.408Z,1014.73
2019-05-23T08:20:20.390Z,1014.69
2019-05-23T08:21:20.386Z,1014.71
2019-05-23T08:22:20.364Z,1014.79
2019-05-23T08:23:20.396Z,1014.74
2019-05-23T08:24:20.351Z,1014.75
2019-05-23T08:25:20.329Z,1014.70
2019-05-23T08:26:20.325Z,1014.75
2019-05-23T08:27:20.310Z,1014.75
2019-05-23T08:28:20.306Z,1014.72
2019-05-23T08:29:26.483Z,1014.60
2019-05-23T08:30:21.293Z,1014.58
2019-05-23T08:31:20.273Z,1014.73
2019-05-23T08:32:20.255Z,1014.72
2019-05-23T08:33:20.247Z,1014.76
2019-05-23T08:34:39.574Z,1014.74
2019-05-23T08:35:44.698Z,1014.74
2019-05-23T08:36:44.686Z,1014.73
2019-05-23T08:37:44.678Z,1014.80
2019-05-23T08:38:44.669Z,1014.79
2019-05-23T08:39:44.656Z,1014.76
2019-05-23T08:40:44.650Z,1014.72
2019-05-23T08:41:44.633Z,1014.73
2019-05-23T08:42:44.624Z,1014.73
2019-05-23T08:43:44.617Z,1014.71
2019-05-23T08:44:44.603Z,1014.69
2019-05-23T08:45:44.592Z,1014.67
2019-05-23T08:46:44.579Z,1014.74
2019-05-23T08:47:44.572Z,1014.73
2019-05-23T08:48:44.559Z,1014.77
2019-05-23T08:49:44.550Z,1014.67
2019-05-23T08:50:44.539Z,1014.76
2019-05-23T08:51:44.538Z,1014.81
2019-05-23T08:52:44.515Z,1014.78
2019-05-23T08:53:44.504Z,1014.75
2019-05-23T08:54:44.500Z,1014.76
2019-05-23T08:55:44.488Z,1014.74
2019-05-23T08:56:44.472Z,1014.72
2019-05-23T08:57:44.470Z,1014.77
2019-05-23T08:58:44.456Z,1014.78
2019-05-23T08:59:44.443Z,1014.83
2019-05-23T09:00:44.431Z,1014.81
2019-05-23T09:01:44.426Z,1014.81
2019-05-23T09:02:44.409Z,1014.80
2019-05-23T09:03:44.403Z,1014.80
2019-05-23T09:05:02.583Z,1014.78
2019-05-23T09:06:08.853Z,1014.78
2019-05-23T09:07:08.840Z,1014.83
2019-05-23T09:08:08.836Z,1014.78
2019-05-23T09:09:27.683Z,1014.75
2019-05-23T09:10:33.285Z,1014.72
2019-05-23T09:11:33.277Z,1014.74
2019-05-23T09:12:33.272Z,1014.77
2019-05-23T09:13:33.255Z,1014.77
2019-05-23T09:14:33.248Z,1014.79
2019-05-23T09:15:33.238Z,1014.79
2019-05-23T09:16:33.415Z,1014.74
2019-05-23T09:17:51.039Z,1014.75
2019-05-23T09:18:34.221Z,1014.72
2019-05-23T09:19:33.192Z,1014.74
2019-05-23T09:20:33.192Z,1014.75
2019-05-23T09:21:33.186Z,1014.74
2019-05-23T09:22:33.168Z,1014.79
2019-05-23T09:23:33.156Z,1014.77
2019-05-23T09:24:33.144Z,1014.76
2019-05-23T09:25:33.130Z,1014.81
2019-05-23T09:26:33.120Z,1014.84
2019-05-23T09:27:34.699Z,1014.90
2019-05-23T09:28:33.104Z,1014.91
2019-05-23T09:29:33.093Z,1014.90
2019-05-23T09:30:33.089Z,1014.90
2019-05-23T09:31:33.069Z,1014.90
2019-05-23T09:32:33.059Z,1014.92
2019-05-23T09:33:33.047Z,1014.85
2019-05-23T09:34:33.035Z,1014.81
2019-05-23T09:35:33.027Z,1014.86
2019-05-23T09:36:33.015Z,1014.84
2019-05-23T09:37:33.026Z,1014.80
2019-05-23T09:38:32.997Z,1014.86
2019-05-23T09:39:32.990Z,1014.81
2019-05-23T09:40:32.984Z,1014.81
2019-05-23T09:41:32.974Z,1014.81
2019-05-23T09:42:32.958Z,1014.79
2019-05-23T09:43:32.946Z,1014.78
2019-05-23T09:44:32.937Z,1014.83
2019-05-23T09:45:32.924Z,1014.80
2019-05-23T09:46:32.915Z,1014.81
2019-05-23T09:47:32.911Z,1014.86
2019-05-23T09:48:32.899Z,1014.81
2019-05-23T09:49:32.884Z,1014.78
2019-05-23T09:50:32.880Z,1014.76
2019-05-23T09:51:32.868Z,1014.81
2019-05-23T09:52:32.858Z,1014.84
2019-05-23T09:53:32.853Z,1014.81
2019-05-23T09:54:32.837Z,1014.74
2019-05-23T09:55:32.821Z,1014.71
2019-05-23T09:56:32.812Z,1014.68
2019-05-23T09:57:32.802Z,1014.67
2019-05-23T09:58:32.798Z,1014.74
2019-05-23T09:59:32.782Z,1014.71
2019-05-23T10:00:32.775Z,1014.70
2019-05-23T10:01:32.778Z,1014.73
2019-05-23T10:02:32.758Z,1014.79
2019-05-23T10:03:32.751Z,1014.75
2019-05-23T10:04:32.745Z,1014.78
2019-05-23T10:05:42.914Z,1014.78
2019-05-23T10:06:57.189Z,1014.80
2019-05-23T10:07:57.181Z,1014.79
2019-05-23T10:08:57.168Z,1014.79
2019-05-23T10:09:57.154Z,1014.75
2019-05-23T10:10:57.151Z,1014.74
2019-05-23T10:11:57.136Z,1014.75
2019-05-23T10:12:57.126Z,1014.79
2019-05-23T10:13:57.113Z,1014.76
2019-05-23T10:14:57.104Z,1014.75
2019-05-23T10:15:57.093Z,1014.74
2019-05-23T10:16:57.084Z,1014.76
2019-05-23T10:18:00.704Z,1014.81
2019-05-23T10:18:57.063Z,1014.76
2019-05-23T10:19:57.063Z,1014.80
2019-05-23T10:20:57.057Z,1014.77
2019-05-23T10:21:57.039Z,1014.76
2019-05-23T10:22:57.023Z,1014.80
2019-05-23T10:23:57.020Z,1014.79
2019-05-23T10:24:57.005Z,1014.77
2019-05-23T10:25:56.995Z,1014.72
2019-05-23T10:26:56.988Z,1014.68
2019-05-23T10:27:56.974Z,1014.73
2019-05-23T10:28:56.964Z,1014.74
2019-05-23T10:29:56.954Z,1014.72
2019-05-23T10:30:56.943Z,1014.74
2019-05-23T10:31:56.938Z,1014.64
2019-05-23T10:32:56.926Z,1014.69
2019-05-23T10:33:56.918Z,1014.71
2019-05-23T10:34:56.922Z,1014.68
2019-05-23T10:36:00.874Z,1014.70
2019-05-23T10:36:56.927Z,1014.74
2019-05-23T10:37:56.891Z,1014.70
2019-05-23T10:38:56.871Z,1014.71
2019-05-23T10:39:56.873Z,1014.68
2019-05-23T10:40:56.886Z,1014.66
2019-05-23T10:41:56.883Z,1014.62
2019-05-23T10:42:56.825Z,1014.64
2019-05-23T10:43:56.819Z,1014.60
2019-05-23T10:44:56.807Z,1014.54
2019-05-23T10:45:56.795Z,1014.62
2019-05-23T10:46:56.787Z,1014.59
2019-05-23T10:47:56.772Z,1014.61
2019-05-23T10:48:56.771Z,1014.55
2019-05-23T10:49:56.754Z,1014.52
2019-05-23T10:50:56.744Z,1014.60
2019-05-23T10:51:56.733Z,1014.61
2019-05-23T10:52:56.724Z,1014.56
2019-05-23T10:53:56.713Z,1014.52
2019-05-23T10:54:56.705Z,1014.54
2019-05-23T10:55:56.727Z,1014.50
2019-05-23T10:56:56.688Z,1014.46
2019-05-23T10:57:56.676Z,1014.47
2019-05-23T10:58:56.670Z,1014.45
2019-05-23T10:59:56.657Z,1014.46
2019-05-23T11:00:56.647Z,1014.45
2019-05-23T11:01:56.631Z,1014.50
2019-05-23T11:02:56.638Z,1014.51
2019-05-23T11:03:56.612Z,1014.55
2019-05-23T11:04:56.629Z,1014.54
2019-05-23T11:05:56.590Z,1014.53
2019-05-23T11:06:56.581Z,1014.51
2019-05-23T11:07:56.582Z,1014.51
2019-05-23T11:08:56.577Z,1014.50
2019-05-23T11:09:56.568Z,1014.52
2019-05-23T11:10:56.546Z,1014.48
2019-05-23T11:11:56.533Z,1014.48
2019-05-23T11:12:56.522Z,1014.45
2019-05-23T11:13:56.651Z,1014.43
2019-05-23T11:14:56.537Z,1014.46
2019-05-23T11:15:56.493Z,1014.39
2019-05-23T11:16:56.481Z,1014.44
2019-05-23T11:17:56.471Z,1014.43
2019-05-23T11:18:56.460Z,1014.46
2019-05-23T11:19:56.451Z,1014.46
2019-05-23T11:20:56.446Z,1014.45
2019-05-23T11:21:56.431Z,1014.39
2019-05-23T11:22:56.426Z,1014.41
2019-05-23T11:23:56.418Z,1014.41
2019-05-23T11:24:56.409Z,1014.38
2019-05-23T11:26:00.654Z,1014.44
2019-05-23T11:26:56.381Z,1014.46
2019-05-23T11:27:56.371Z,1014.48
2019-05-23T11:28:56.362Z,1014.45
2019-05-23T11:29:56.361Z,1014.44
2019-05-23T11:30:56.340Z,1014.42
2019-05-23T11:31:56.331Z,1014.37
2019-05-23T11:32:56.320Z,1014.39
2019-05-23T11:33:56.311Z,1014.33
2019-05-23T11:34:56.302Z,1014.34
2019-05-23T11:35:56.355Z,1014.33
2019-05-23T11:36:56.286Z,1014.30
2019-05-23T11:37:56.270Z,1014.28
2019-05-23T11:38:56.260Z,1014.25
2019-05-23T11:39:56.252Z,1014.28
2019-05-23T11:40:56.239Z,1014.23
2019-05-23T11:41:56.241Z,1014.32
2019-05-23T11:42:56.221Z,1014.30
2019-05-23T11:43:56.210Z,1014.32
2019-05-23T11:44:56.203Z,1014.35
2019-05-23T11:45:56.188Z,1014.32
2019-05-23T11:46:56.189Z,1014.35
2019-05-23T11:47:56.170Z,1014.33
2019-05-23T11:48:56.163Z,1014.33
2019-05-23T11:49:56.174Z,1014.33
2019-05-23T11:50:56.141Z,1014.30
2019-05-23T11:51:56.143Z,1014.26
2019-05-23T11:52:56.323Z,1014.29
2019-05-23T11:54:07.684Z,1014.34
2019-05-23T11:55:20.607Z,1014.20
2019-05-23T11:56:20.597Z,1014.24
2019-05-23T11:57:20.594Z,1014.25
2019-05-23T11:58:20.580Z,1014.21
2019-05-23T11:59:20.560Z,1014.21
2019-05-23T12:00:20.592Z,1014.24
2019-05-23T12:01:21.486Z,1014.22
2019-05-23T12:02:20.535Z,1014.23
2019-05-23T12:03:20.551Z,1014.22
2019-05-23T12:04:20.535Z,1014.16
2019-05-23T12:05:20.497Z,1014.11
2019-05-23T12:06:20.489Z,1014.06
2019-05-23T12:07:20.473Z,1014.03
2019-05-23T12:08:20.464Z,1014.08
2019-05-23T12:09:20.456Z,1014.07
2019-05-23T12:10:20.450Z,1014.12
2019-05-23T12:11:20.438Z,1014.12
2019-05-23T12:12:20.422Z,1014.08
2019-05-23T12:13:20.411Z,1014.18
2019-05-23T12:14:20.402Z,1014.15
2019-05-23T12:15:20.389Z,1014.13
2019-05-23T12:16:20.378Z,1014.13
2019-05-23T12:17:20.379Z,1014.09
2019-05-23T12:18:20.364Z,1014.11
2019-05-23T12:19:20.471Z,1014.20
2019-05-23T12:20:20.338Z,1014.11
2019-05-23T12:21:20.379Z,1014.11
2019-05-23T12:22:20.316Z,1014.01
2019-05-23T12:23:20.316Z,1014.04
2019-05-23T12:24:20.293Z,1014.04
2019-05-23T12:25:22.945Z,1013.99
2019-05-23T12:26:20.286Z,1013.96
2019-05-23T12:27:20.265Z,1014.02
2019-05-23T12:28:20.262Z,1014.01
2019-05-23T12:29:20.245Z,1013.96
2019-05-23T12:30:20.231Z,1014.00
2019-05-23T12:31:20.225Z,1013.97
2019-05-23T12:32:20.212Z,1013.96
2019-05-23T12:33:20.205Z,1013.99
2019-05-23T12:34:20.196Z,1013.94
2019-05-23T12:35:20.183Z,1013.96
2019-05-23T12:36:20.169Z,1013.89
2019-05-23T12:37:20.830Z,1013.93
2019-05-23T12:38:20.153Z,1013.92
2019-05-23T12:39:20.138Z,1013.90
2019-05-23T12:40:20.129Z,1013.86
2019-05-23T12:41:20.117Z,1013.88
2019-05-23T12:42:20.103Z,1013.86
2019-05-23T12:43:20.095Z,1013.86
2019-05-23T12:44:20.086Z,1013.80
2019-05-23T12:45:20.071Z,1013.80
2019-05-23T12:46:20.064Z,1013.79
2019-05-23T12:47:20.060Z,1013.76
2019-05-23T12:48:20.039Z,1013.70
2019-05-23T12:49:20.031Z,1013.74
2019-05-23T12:50:20.019Z,1013.71
2019-05-23T12:51:20.025Z,1013.80
2019-05-23T12:52:19.997Z,1013.81
2019-05-23T12:53:19.986Z,1013.76
2019-05-23T12:54:19.977Z,1013.78
2019-05-23T12:55:19.967Z,1013.73
2019-05-23T12:56:19.968Z,1013.69
2019-05-23T12:57:19.957Z,1013.65
2019-05-23T12:58:19.944Z,1013.60
2019-05-23T12:59:19.922Z,1013.61
2019-05-23T13:00:19.918Z,1013.61
2019-05-23T13:01:19.903Z,1013.58
2019-05-23T13:02:19.892Z,1013.59
2019-05-23T13:03:19.882Z,1013.59
2019-05-23T13:04:19.869Z,1013.62
2019-05-23T13:05:19.872Z,1013.66
2019-05-23T13:06:19.860Z,1013.68
2019-05-23T13:07:35.025Z,1013.68
2019-05-23T13:08:44.303Z,1013.56
2019-05-23T13:09:44.565Z,1013.50
2019-05-23T13:10:44.291Z,1013.49
2019-05-23T13:11:44.274Z,1013.49
2019-05-23T13:12:44.367Z,1013.44
2019-05-23T13:13:44.247Z,1013.50
2019-05-23T13:14:44.243Z,1013.51
2019-05-23T13:15:44.228Z,1013.50
2019-05-23T13:16:44.213Z,1013.46
2019-05-23T13:17:44.204Z,1013.47
2019-05-23T13:18:44.198Z,1013.46
2019-05-23T13:19:44.180Z,1013.44
2019-05-23T13:20:44.185Z,1013.50
2019-05-23T13:21:44.159Z,1013.46
2019-05-23T13:22:44.153Z,1013.53
2019-05-23T13:23:44.138Z,1013.51
2019-05-23T13:24:52.885Z,1013.55
2019-05-23T13:25:45.136Z,1013.48
2019-05-23T13:26:44.123Z,1013.50
2019-05-23T13:27:44.095Z,1013.41
2019-05-23T13:28:44.091Z,1013.34
2019-05-23T13:29:44.074Z,1013.41
2019-05-23T13:30:44.070Z,1013.43
2019-05-23T13:31:44.060Z,1013.46
2019-05-23T13:32:44.049Z,1013.51
2019-05-23T13:33:44.032Z,1013.45
2019-05-23T13:34:44.022Z,1013.47
2019-05-23T13:35:44.013Z,1013.48
2019-05-23T13:36:43.999Z,1013.47
2019-05-23T13:37:53.057Z,1013.45
2019-05-23T13:38:44.997Z,1013.46
2019-05-23T13:39:43.972Z,1013.46
2019-05-23T13:40:43.957Z,1013.40
2019-05-23T13:41:43.949Z,1013.41
2019-05-23T13:42:43.934Z,1013.39
2019-05-23T13:43:43.928Z,1013.35
2019-05-23T13:44:43.926Z,1013.31
2019-05-23T13:45:43.909Z,1013.30
2019-05-23T13:46:43.900Z,1013.32
2019-05-23T13:47:43.879Z,1013.26
2019-05-23T13:48:43.873Z,1013.22
2019-05-23T13:49:43.858Z,1013.23
2019-05-23T13:50:43.853Z,1013.25
2019-05-23T13:51:43.975Z,1013.21
2019-05-23T13:52:43.827Z,1013.20
2019-05-23T13:53:43.819Z,1013.23
2019-05-23T13:54:43.819Z,1013.18
2019-05-23T13:55:43.815Z,1013.16
2019-05-23T13:56:47.566Z,1013.13
2019-05-23T13:57:43.773Z,1013.11
2019-05-23T13:58:43.769Z,1013.17
2019-05-23T13:59:43.753Z,1013.20
2019-05-23T14:00:43.746Z,1013.13
2019-05-23T14:01:43.739Z,1013.16
2019-05-23T14:02:43.719Z,1013.17
2019-05-23T14:03:43.710Z,1013.15
2019-05-23T14:04:43.696Z,1013.13
2019-05-23T14:05:43.687Z,1013.13
2019-05-23T14:06:43.761Z,1013.18
2019-05-23T14:07:43.670Z,1013.17
2019-05-23T14:08:43.659Z,1013.07
2019-05-23T14:09:43.642Z,1013.07
2019-05-23T14:10:43.628Z,1013.11
2019-05-23T14:11:43.618Z,1013.07
2019-05-23T14:12:43.614Z,1013.07
2019-05-23T14:13:43.617Z,1013.08
2019-05-23T14:14:43.596Z,1013.10
2019-05-23T14:15:43.578Z,1013.08
2019-05-23T14:16:43.567Z,1013.07
2019-05-23T14:17:43.557Z,1013.08
2019-05-23T14:18:43.577Z,1013.07
2019-05-23T14:19:43.532Z,1013.04
2019-05-23T14:20:43.530Z,1013.06
2019-05-23T14:21:43.510Z,1013.06
2019-05-23T14:22:43.507Z,1013.04
2019-05-23T14:23:43.490Z,1012.99
2019-05-23T14:24:43.480Z,1013.01
2019-05-23T14:25:43.473Z,1013.03
2019-05-23T14:26:43.470Z,1013.04
2019-05-23T14:27:43.565Z,1012.98
2019-05-23T14:28:43.431Z,1012.96
2019-05-23T14:29:43.431Z,1013.00
2019-05-23T14:30:43.413Z,1013.00
2019-05-23T14:31:43.401Z,1012.97